Sigfox identifier Datetime Temperature Humidity SNR
00393836 2018-10-09 09:03:58 20.4 39 14.9
00393836 2018-10-09 05:39:35 20.4 38 15.1
00393836 2018-10-09 01:06:56 20.4 38 15.5
00393836 2018-10-08 23:58:48 20.4 38 15.5
00393836 2018-10-08 22:50:39 20.4 38 16
00393836 2018-10-08 17:10:01 20.4 37 16.1
00393836 2018-10-08 11:29:18 20.4 36 16.7
00393836 2018-10-08 10:21:12 20.4 36 16.9
00393836 2018-10-08 08:04:53 20.4 36 17
00393836 2018-10-08 06:56:42 20.4 36 17
00393836 2018-10-08 05:48:34 20.4 36 17.2
00393836 2018-10-08 04:40:25 20.5 37 17.1
00393836 2018-10-08 03:32:15 20.5 37 17.3
00393836 2018-10-08 02:24:07 20.5 37 17.3
00393836 2018-10-08 01:15:57 20.6 37 17.5
00393836 2018-10-08 00:07:48 20.6 38 17.5
00393836 2018-10-07 22:59:42 20.6 38 18
00393836 2018-10-07 21:51:37 20.6 38 18.3
00393836 2018-10-07 20:43:26 20.6 39 18.3
00393836 2018-10-07 19:35:16 20.6 39 18.2
00393836 2018-10-07 18:27:06 20.6 39 18
00393836 2018-10-07 17:18:53 20.6 39 18
00393836 2018-10-07 16:10:41 20.6 39 18
00393836 2018-10-07 15:02:31 20.6 39 18
00393836 2018-10-07 13:54:18 20.6 39 18
00393836 2018-10-07 12:46:04 20.6 39 18.1
00393836 2018-10-07 11:37:51 20.6 39 18
00393836 2018-10-07 10:29:39 20.6 39 17.9
00393836 2018-10-07 09:21:24 20.7 39 17.8
00393836 2018-10-07 08:13:10 20.7 39 17.7
00393836 2018-10-07 07:04:57 20.8 39 18
00393836 2018-10-07 05:56:41 20.8 39 17.7
00393836 2018-10-07 04:48:31 20.8 39 17.4
00393836 2018-10-07 03:40:16 20.8 40 17.4
00393836 2018-10-07 02:32:05 20.8 40 17.3
00393836 2018-10-07 01:23:54 20.8 40 17.2
00393836 2018-10-07 00:15:44 20.8 40 16.9
00393836 2018-10-06 23:07:30 20.8 40 16.6
00393836 2018-10-06 21:59:16 20.8 40 16.9
00393836 2018-10-06 20:51:02 20.8 40 17
00393836 2018-10-06 19:42:47 20.9 40 17.1
00393836 2018-10-06 18:34:30 20.9 40 16.4
00393836 2018-10-06 17:26:19 20.9 40 16.1
00393836 2018-10-06 16:18:08 20.9 40 16.3
00393836 2018-10-06 15:09:56 20.9 40 16.3
00393836 2018-10-06 14:01:43 20.9 40 16.3
00393836 2018-10-06 12:53:30 20.9 40 16.3
00393836 2018-10-06 11:45:16 21 40 16.4
00393836 2018-10-06 10:37:02 21 40 16.4
00393836 2018-10-06 09:28:49 21 41 16.3
00393836 2018-10-06 08:20:41 21 41 16.1
00393836 2018-10-06 07:12:31 21 41 16.1
00393836 2018-10-06 06:04:17 21 41 16
00393836 2018-10-06 04:56:04 21 42 16.1
00393836 2018-10-06 03:47:52 21 42 16.5
00393836 2018-10-06 02:39:38 21.1 42 16.2
00393836 2018-10-06 01:31:23 21.2 42 16
00393836 2018-10-06 00:23:08 21.2 43 16.1
00393836 2018-10-05 23:14:54 21.2 43 16.2
00393836 2018-10-05 22:06:42 21.2 43 15.9
00393836 2018-10-05 20:58:30 21.3 44 16
00393836 2018-10-05 19:50:20 21.2 44 16.2
00393836 2018-10-05 18:42:09 21.3 44 16.3
00393836 2018-10-05 17:33:59 21.2 45 15.9
00393836 2018-10-05 16:25:42 21.2 45 15
00393836 2018-10-05 15:17:29 21 44 15.2
00393836 2018-10-05 14:09:14 21.1 44 15.4
00393836 2018-10-05 13:00:58 21.1 45 15.5
00393836 2018-10-05 11:52:43 21 43 15
00393836 2018-10-05 10:44:27 20.9 41 15
00393836 2018-10-05 09:36:13 20.6 37 14.9
00393836 2018-10-05 06:11:41 20.4 30 15.3
00393836 2018-10-05 05:03:37 20.4 30 15.7
00393836 2018-10-05 03:55:23 20.6 30 16.1
00393836 2018-10-05 01:38:56 20.6 31 16.5
00393836 2018-10-05 00:30:38 20.8 31 17.1
00393836 2018-10-04 23:22:19 20.8 31 18.1
00393836 2018-10-04 21:05:45 21 31 19.7
00393836 2018-10-04 19:57:30 21 31 22.2
00393836 2018-10-04 16:32:36 20.4 45 0